Hauptseite
METAR-TAF:

METAR-TAF

Flughäfen :

Flughafen Friedrichshafen

Friedrichshafen, Deutschland

Breite: 47-40N, Länge: 009-31E, Höhe: 416 m

Beobachtung

Neuester Wetterbericht von vor 26 Minuten, um 01:50 UTC
Wind 11 kt aus Nord/Nordost
Temperatur 2°C
Luftfeuchtigkeit 64%
Luftdruck 1032 hPa
Sichtweite 10 km oder mehr

METAR: EDNY 210150Z AUTO 03011KT 9999 // NCD 02/M04 Q1032

Zeit: 03:16 (02:16 UTC)

Prognose

Neuester Wetterbericht von vor 3 Stunden und 16 Minuten, um 23:00 UTC
Gültige Prognose vom 21 um 00 UTC bis 21 um 24 UTC
Wind 5 kt aus Nord/Nordost
Sichtweite 10 km oder mehr
keine Wolken unter 1500 m und keine Kumulonimbus oder Gewitterwolken
Übergehend zu
vom 21 um 08 UTC bis 21 um 10 UTC
Wind 10 kt aus Nordost
Übergehend zu
vom 21 um 18 UTC bis 21 um 20 UTC
Wind 5 kt aus Nord/Nordost

TAF: EDNY 202300Z 2100/2124 03005KT CAVOK BECMG 2108/2110 04010KT BECMG 2118/2120 03005KT

Wetterbeobachtungen und Prognosen von mehr als 4000 Flughäfen (METAR und TAF Bericht).

Die verfügbaren Stationen werden durch gelbe und rote Markierungen auf der Karte dargestellt.

Führen Sie die Maus auf sie, um den Namen der Station zu sehen.

Darauf klicken, um die Beobachtung von Wetterbeobachtungen und Prognosen zu sehen.

Um die Karte zu ändern : klicken Sie auf den grünen Tasten mit einem schwarzen Kreuz Zum Vergrößern, auf den grünen Button mit einem Gedankenstrich zu verkleinern, oder auf die grünen Pfeile für benachbarte Karten.


METAR-TAF: